createdAt,value
2022-09-17T00:01:29.464Z,100.00
2022-09-17T00:04:02.100Z,100.00
2022-09-17T00:06:29.948Z,100.00
2022-09-17T00:08:56.894Z,100.00
2022-09-17T00:11:30.646Z,100.00
2022-09-17T00:14:00.934Z,100.00
2022-09-17T00:16:47.955Z,100.00
2022-09-17T00:19:23.495Z,100.00
2022-09-17T00:21:51.021Z,100.00
2022-09-17T00:24:21.681Z,100.00
2022-09-17T00:26:50.171Z,100.00
2022-09-17T00:29:16.974Z,100.00
2022-09-17T00:31:43.880Z,100.00
2022-09-17T00:34:11.852Z,100.00
2022-09-17T00:36:40.205Z,100.00
2022-09-17T00:39:10.527Z,100.00
2022-09-17T00:41:39.320Z,100.00
2022-09-17T00:44:49.708Z,100.00
2022-09-17T00:47:41.702Z,100.00
2022-09-17T00:50:15.671Z,100.00
2022-09-17T00:52:57.190Z,100.00
2022-09-17T00:55:36.374Z,100.00
2022-09-17T00:58:09.646Z,100.00
2022-09-17T01:00:37.286Z,100.00
2022-09-17T01:03:05.326Z,100.00
2022-09-17T01:06:10.770Z,100.00
2022-09-17T01:08:55.621Z,100.00
2022-09-17T01:12:15.319Z,100.00
2022-09-17T01:15:15.895Z,100.00
2022-09-17T01:18:40.838Z,100.00
2022-09-17T01:21:49.155Z,100.00
2022-09-17T01:24:58.571Z,100.00
2022-09-17T01:28:02.106Z,100.00
2022-09-17T01:30:42.108Z,100.00
2022-09-17T01:33:39.730Z,100.00
2022-09-17T01:36:37.130Z,100.00
2022-09-17T01:39:14.675Z,100.00
2022-09-17T01:41:52.951Z,100.00
2022-09-17T01:44:35.738Z,100.00
2022-09-17T01:47:20.861Z,100.00
2022-09-17T01:49:53.412Z,100.00
2022-09-17T01:52:21.683Z,100.00
2022-09-17T01:54:56.660Z,100.00
2022-09-17T01:57:33.646Z,100.00
2022-09-17T02:00:15.813Z,100.00
2022-09-17T02:03:09.891Z,100.00
2022-09-17T02:05:58.473Z,100.00
2022-09-17T02:08:43.797Z,100.00
2022-09-17T02:11:17.097Z,100.00
2022-09-17T02:14:08.180Z,100.00
2022-09-17T02:16:39.782Z,100.00
2022-09-17T02:19:20.832Z,100.00
2022-09-17T02:22:28.556Z,100.00
2022-09-17T02:25:09.878Z,100.00
2022-09-17T02:27:52.288Z,100.00
2022-09-17T02:30:19.438Z,100.00
2022-09-17T02:32:46.650Z,100.00
2022-09-17T02:35:15.311Z,100.00
2022-09-17T02:37:44.234Z,100.00
2022-09-17T02:40:15.284Z,100.00
2022-09-17T02:43:06.764Z,100.00
2022-09-17T02:46:10.079Z,100.00
2022-09-17T02:49:33.507Z,100.00
2022-09-17T02:52:37.631Z,100.00
2022-09-17T02:55:38.069Z,100.00
2022-09-17T02:58:20.073Z,100.00
2022-09-17T03:00:48.869Z,100.00
2022-09-17T03:03:32.195Z,100.00
2022-09-17T03:06:00.460Z,100.00
2022-09-17T03:08:38.081Z,100.00
2022-09-17T03:11:05.969Z,100.00
2022-09-17T03:13:32.677Z,100.00
2022-09-17T03:15:59.493Z,100.00
2022-09-17T03:18:26.259Z,100.00
2022-09-17T03:20:52.965Z,100.00
2022-09-17T03:23:19.746Z,100.00
2022-09-17T03:25:47.240Z,100.00
2022-09-17T03:28:13.914Z,100.00
2022-09-17T03:30:40.611Z,100.00
2022-09-17T03:33:07.283Z,100.00
2022-09-17T03:35:33.974Z,100.00
2022-09-17T03:38:00.777Z,100.00
2022-09-17T03:40:27.649Z,100.00
2022-09-17T03:42:54.325Z,100.00
2022-09-17T03:45:21.002Z,100.00
2022-09-17T03:47:47.914Z,100.00
2022-09-17T03:50:14.590Z,100.00
2022-09-17T03:52:43.769Z,100.00
2022-09-17T03:56:41.653Z,100.00
2022-09-17T03:59:09.305Z,100.00
2022-09-17T04:01:36.357Z,100.00
2022-09-17T04:04:04.487Z,100.00
2022-09-17T04:06:31.607Z,100.00
2022-09-17T04:08:58.346Z,100.00
2022-09-17T04:11:24.973Z,100.00
2022-09-17T04:13:51.593Z,100.00
2022-09-17T04:16:18.454Z,100.00
2022-09-17T04:18:45.288Z,100.00
2022-09-17T04:21:12.040Z,100.00
2022-09-17T04:23:38.927Z,100.00
2022-09-17T04:26:05.850Z,100.00
2022-09-17T04:28:32.534Z,100.00
2022-09-17T04:30:59.241Z,100.00
2022-09-17T04:33:25.968Z,100.00
2022-09-17T04:35:52.635Z,100.00
2022-09-17T04:38:20.681Z,100.00
2022-09-17T04:40:47.528Z,100.00
2022-09-17T04:43:14.963Z,100.00
2022-09-17T04:45:41.775Z,100.00
2022-09-17T04:48:08.836Z,100.00
2022-09-17T04:50:35.441Z,100.00
2022-09-17T04:53:02.175Z,100.00
2022-09-17T04:55:29.209Z,100.00
2022-09-17T04:57:55.863Z,100.00
2022-09-17T05:00:24.208Z,100.00
2022-09-17T05:02:54.896Z,100.00
2022-09-17T05:05:23.316Z,100.00
2022-09-17T05:07:50.242Z,100.00
2022-09-17T05:10:20.075Z,100.00
2022-09-17T05:12:52.144Z,100.00
2022-09-17T05:15:19.896Z,100.00
2022-09-17T05:17:47.242Z,100.00
2022-09-17T05:20:15.626Z,100.00
2022-09-17T05:22:48.845Z,100.00
2022-09-17T05:25:17.928Z,100.00
2022-09-17T05:27:45.619Z,100.00
2022-09-17T05:30:13.098Z,100.00
2022-09-17T05:32:40.748Z,100.00
2022-09-17T05:35:10.175Z,100.00
2022-09-17T05:37:37.684Z,100.00
2022-09-17T05:40:07.907Z,100.00
2022-09-17T05:42:35.094Z,100.00
2022-09-17T05:45:01.835Z,100.00
2022-09-17T05:47:28.718Z,100.00
2022-09-17T05:49:55.317Z,100.00
2022-09-17T05:52:21.976Z,100.00
2022-09-17T05:54:48.687Z,100.00
2022-09-17T05:57:16.068Z,100.00
2022-09-17T05:59:42.798Z,100.00
2022-09-17T06:02:14.117Z,100.00
2022-09-17T06:04:41.077Z,100.00
2022-09-17T06:07:09.401Z,100.00
2022-09-17T06:09:41.004Z,100.00
2022-09-17T06:12:11.831Z,100.00
2022-09-17T06:14:41.732Z,100.00
2022-09-17T06:17:08.416Z,100.00
2022-09-17T06:19:35.023Z,100.00
2022-09-17T06:22:01.928Z,100.00
2022-09-17T06:24:28.530Z,100.00
2022-09-17T06:26:55.508Z,100.00
2022-09-17T06:29:22.151Z,100.00
2022-09-17T06:31:50.007Z,100.00
2022-09-17T06:34:17.730Z,100.00
2022-09-17T06:36:44.460Z,100.00
2022-09-17T06:39:11.800Z,100.00
2022-09-17T06:41:38.975Z,100.00
2022-09-17T06:44:05.672Z,100.00
2022-09-17T06:46:32.336Z,100.00
2022-09-17T06:48:59.032Z,100.00
2022-09-17T06:51:25.923Z,100.00
2022-09-17T06:53:52.606Z,100.00
2022-09-17T06:56:19.778Z,100.00
2022-09-17T06:58:46.956Z,100.00
2022-09-17T07:01:15.056Z,100.00
2022-09-17T07:03:43.599Z,100.00
2022-09-17T07:06:11.572Z,100.00
2022-09-17T07:08:39.436Z,100.00
2022-09-17T07:11:06.897Z,100.00
2022-09-17T07:13:34.638Z,100.00
2022-09-17T07:16:05.373Z,100.00
2022-09-17T07:18:33.041Z,100.00
2022-09-17T07:21:02.538Z,100.00
2022-09-17T07:23:33.292Z,100.00
2022-09-17T07:26:13.843Z,100.00
2022-09-17T07:28:42.158Z,100.00
2022-09-17T07:31:13.693Z,100.00
2022-09-17T07:33:41.241Z,100.00
2022-09-17T07:36:12.368Z,100.00
2022-09-17T07:38:39.664Z,100.00
2022-09-17T07:41:13.414Z,100.00
2022-09-17T07:43:41.234Z,100.00
2022-09-17T07:46:13.784Z,100.00
2022-09-17T07:48:40.866Z,100.00
2022-09-17T07:51:07.734Z,100.00
2022-09-17T07:53:34.360Z,100.00
2022-09-17T07:56:01.451Z,100.00
2022-09-17T07:58:36.445Z,100.00
2022-09-17T08:01:09.184Z,100.00
2022-09-17T08:03:38.515Z,100.00
2022-09-17T08:06:12.663Z,99.92
2022-09-17T08:08:40.785Z,99.83
2022-09-17T08:11:12.036Z,100.00
2022-09-17T08:13:40.018Z,98.89
2022-09-17T08:16:13.387Z,98.13
2022-09-17T08:18:42.091Z,98.50
2022-09-17T08:21:13.266Z,95.85
2022-09-17T08:23:42.613Z,96.72
2022-09-17T08:26:18.593Z,95.96
2022-09-17T08:28:51.352Z,96.34
2022-09-17T08:31:19.605Z,96.50
2022-09-17T08:33:47.956Z,95.52
2022-09-17T08:36:17.271Z,96.03
2022-09-17T08:38:44.261Z,94.56
2022-09-17T08:41:11.288Z,92.27
2022-09-17T08:44:09.722Z,91.96
2022-09-17T08:46:48.302Z,91.67
2022-09-17T08:49:39.326Z,90.43
2022-09-17T08:52:34.458Z,91.28
2022-09-17T08:55:34.040Z,87.89
2022-09-17T08:58:35.408Z,87.94
2022-09-17T09:01:42.620Z,88.47
2022-09-17T09:05:05.255Z,86.80
2022-09-17T09:07:42.500Z,86.16
2022-09-17T09:10:31.954Z,83.93
2022-09-17T09:13:01.174Z,85.01
2022-09-17T09:15:42.532Z,81.51
2022-09-17T09:18:29.235Z,80.71
2022-09-17T09:21:28.267Z,81.51
2022-09-17T09:24:23.452Z,81.72
2022-09-17T09:27:28.123Z,80.86
2022-09-17T09:30:11.530Z,81.35
2022-09-17T09:33:18.448Z,79.95
2022-09-17T09:35:45.693Z,80.61
2022-09-17T09:38:46.773Z,82.57
2022-09-17T09:41:22.484Z,82.38
2022-09-17T09:44:09.600Z,79.11
2022-09-17T09:47:13.324Z,78.61
2022-09-17T09:50:23.068Z,79.31
2022-09-17T09:53:18.855Z,79.47
2022-09-17T09:55:51.571Z,79.79
2022-09-17T09:58:41.640Z,80.00
2022-09-17T10:01:20.952Z,81.04
2022-09-17T10:03:52.220Z,81.07
2022-09-17T10:06:19.942Z,83.37
2022-09-17T10:08:56.009Z,85.23
2022-09-17T10:11:27.170Z,85.85
2022-09-17T10:14:13.790Z,85.51
2022-09-17T10:16:40.641Z,86.30
2022-09-17T10:19:07.694Z,85.92
2022-09-17T10:21:41.399Z,85.34
2022-09-17T10:24:32.041Z,83.24
2022-09-17T10:27:06.270Z,81.56
2022-09-17T10:29:34.635Z,79.20
2022-09-17T10:32:06.883Z,77.30
2022-09-17T10:34:34.481Z,78.38
2022-09-17T10:37:01.177Z,76.16
2022-09-17T10:39:36.573Z,76.57
2022-09-17T10:42:19.227Z,76.88
2022-09-17T10:44:55.783Z,78.30
2022-09-17T10:47:31.335Z,77.28
2022-09-17T10:50:05.794Z,76.30
2022-09-17T10:52:39.355Z,77.70
2022-09-17T10:55:29.778Z,78.36
2022-09-17T10:58:10.030Z,77.59
2022-09-17T11:01:22.666Z,77.22
2022-09-17T11:03:59.683Z,77.75
2022-09-17T11:07:47.490Z,76.20
2022-09-17T11:10:16.686Z,74.05
2022-09-17T11:13:02.552Z,73.90
2022-09-17T11:15:55.737Z,72.20
2022-09-17T11:19:01.671Z,71.38
2022-09-17T11:21:50.895Z,72.10
2022-09-17T11:24:31.549Z,71.37
2022-09-17T11:27:22.200Z,71.61
2022-09-17T11:30:17.733Z,70.66
2022-09-17T11:33:02.837Z,71.84
2022-09-17T11:35:54.979Z,74.52
2022-09-17T11:38:35.901Z,74.25
2022-09-17T11:41:10.909Z,73.59
2022-09-17T11:43:51.664Z,74.34
2022-09-17T11:46:27.671Z,74.43
2022-09-17T11:49:18.566Z,73.86
2022-09-17T11:51:56.333Z,73.56
2022-09-17T11:54:28.655Z,72.21
2022-09-17T11:57:32.919Z,71.21
2022-09-17T12:00:14.233Z,68.94
2022-09-17T12:02:57.565Z,67.05
2022-09-17T12:05:34.862Z,67.79
2022-09-17T12:08:45.453Z,67.57
2022-09-17T12:11:21.614Z,67.38
2022-09-17T12:14:04.061Z,68.29
2022-09-17T12:16:39.722Z,66.94
2022-09-17T12:19:30.085Z,66.80
2022-09-17T12:22:19.311Z,66.91
2022-09-17T12:24:46.582Z,66.13
2022-09-17T12:27:23.104Z,66.06
2022-09-17T12:30:09.995Z,66.65
2022-09-17T12:32:58.644Z,68.19
2022-09-17T12:36:19.857Z,68.26
2022-09-17T12:39:40.889Z,68.69
2022-09-17T12:42:58.757Z,66.40
2022-09-17T12:45:57.160Z,65.67
2022-09-17T12:53:53.644Z,66.59
2022-09-17T12:56:47.838Z,67.09
2022-09-17T12:59:20.765Z,66.74
2022-09-17T13:02:28.232Z,65.16
2022-09-17T13:05:37.124Z,64.76
2022-09-17T13:08:26.156Z,65.56
2022-09-17T13:11:17.850Z,68.24
2022-09-17T13:14:26.718Z,71.44
2022-09-17T13:17:08.161Z,71.52
2022-09-17T13:19:55.582Z,66.54
2022-09-17T13:22:30.327Z,66.72
2022-09-17T13:25:12.418Z,62.57
2022-09-17T13:27:41.147Z,60.99
2022-09-17T13:30:12.024Z,60.20
2022-09-17T13:32:41.544Z,58.33
2022-09-17T13:35:09.891Z,57.71
2022-09-17T13:38:06.228Z,58.82
2022-09-17T13:40:36.121Z,60.59
2022-09-17T13:43:08.730Z,59.98
2022-09-17T13:46:01.200Z,61.35
2022-09-17T13:48:36.098Z,61.76
2022-09-17T13:51:31.154Z,61.90
2022-09-17T13:54:07.623Z,59.97
2022-09-17T13:57:09.637Z,59.70
2022-09-17T13:59:38.671Z,59.69
2022-09-17T14:02:14.683Z,60.25
2022-09-17T14:04:41.218Z,60.59
2022-09-17T14:07:29.203Z,60.97
2022-09-17T14:10:34.545Z,60.94
2022-09-17T14:13:26.996Z,60.71
2022-09-17T14:16:01.865Z,57.38
2022-09-17T14:18:28.635Z,55.46
2022-09-17T14:21:12.585Z,53.81
2022-09-17T14:23:46.770Z,54.36
2022-09-17T14:26:34.093Z,55.28
2022-09-17T14:29:31.221Z,54.67
2022-09-17T14:31:58.919Z,56.31
2022-09-17T14:34:28.347Z,57.54
2022-09-17T14:36:56.948Z,59.61
2022-09-17T14:39:36.159Z,61.31
2022-09-17T14:42:20.009Z,61.53
2022-09-17T14:45:06.708Z,62.50
2022-09-17T14:47:33.671Z,62.53
2022-09-17T14:50:26.844Z,62.64
2022-09-17T14:52:54.614Z,61.76
2022-09-17T14:55:31.796Z,62.95
2022-09-17T14:58:04.896Z,63.30
2022-09-17T15:00:38.048Z,61.90
2022-09-17T15:03:06.274Z,61.29
2022-09-17T15:05:40.771Z,61.59
2022-09-17T15:08:10.462Z,61.91
2022-09-17T15:10:53.755Z,62.28
2022-09-17T15:13:52.673Z,63.02
2022-09-17T15:16:26.296Z,64.34
2022-09-17T15:19:03.767Z,65.01
2022-09-17T15:21:39.224Z,65.28
2022-09-17T15:24:34.977Z,66.38
2022-09-17T15:27:24.019Z,66.59
2022-09-17T15:30:20.622Z,67.41
2022-09-17T15:32:57.192Z,64.34
2022-09-17T15:35:31.994Z,61.43
2022-09-17T15:38:23.283Z,60.08
2022-09-17T15:40:51.817Z,61.89
2022-09-17T15:43:31.475Z,61.85
2022-09-17T15:46:27.864Z,62.33
2022-09-17T15:48:59.175Z,61.99
2022-09-17T15:51:37.015Z,62.90
2022-09-17T15:54:06.774Z,62.39
2022-09-17T15:56:40.323Z,62.97
2022-09-17T15:59:30.459Z,62.74
2022-09-17T16:02:01.611Z,63.70
2022-09-17T16:04:34.010Z,63.94
2022-09-17T16:07:30.134Z,64.22
2022-09-17T16:09:59.296Z,65.03
2022-09-17T16:12:29.007Z,65.09
2022-09-17T16:14:58.886Z,65.84
2022-09-17T16:17:44.845Z,65.35
2022-09-17T16:20:19.869Z,66.74
2022-09-17T16:22:48.313Z,67.17
2022-09-17T16:25:17.512Z,67.91
2022-09-17T16:27:56.054Z,68.50
2022-09-17T16:30:24.898Z,69.38
2022-09-17T16:32:53.734Z,70.12
2022-09-17T16:35:26.320Z,70.47
2022-09-17T16:37:56.211Z,70.11
2022-09-17T16:40:29.548Z,70.21
2022-09-17T16:42:59.532Z,70.60
2022-09-17T16:45:28.996Z,70.75
2022-09-17T16:47:56.798Z,70.93
2022-09-17T16:50:24.347Z,71.12
2022-09-17T16:52:51.211Z,70.98
2022-09-17T16:55:19.381Z,71.55
2022-09-17T16:57:46.834Z,70.36
2022-09-17T17:00:19.233Z,70.30
2022-09-17T17:02:54.600Z,70.75
2022-09-17T17:05:22.937Z,70.45
2022-09-17T17:07:50.469Z,70.79
2022-09-17T17:10:18.438Z,70.61
2022-09-17T17:12:45.216Z,70.70
2022-09-17T17:15:12.014Z,70.66
2022-09-17T17:17:39.110Z,71.39
2022-09-17T17:20:14.935Z,71.89
2022-09-17T17:22:43.586Z,72.38
2022-09-17T17:25:13.675Z,73.08
2022-09-17T17:27:41.349Z,73.41
2022-09-17T17:30:16.598Z,73.96
2022-09-17T17:32:48.089Z,74.47
2022-09-17T17:35:14.786Z,74.66
2022-09-17T17:37:41.723Z,75.19
2022-09-17T17:40:10.338Z,75.47
2022-09-17T17:42:39.553Z,76.23
2022-09-17T17:45:08.577Z,76.57
2022-09-17T17:47:35.969Z,77.81
2022-09-17T17:50:03.432Z,78.54
2022-09-17T17:52:30.173Z,79.89
2022-09-17T17:54:56.779Z,80.31
2022-09-17T17:57:23.395Z,80.92
2022-09-17T17:59:50.109Z,81.24
2022-09-17T18:02:16.856Z,81.89
2022-09-17T18:04:43.886Z,81.94
2022-09-17T18:07:10.718Z,83.05
2022-09-17T18:09:37.417Z,83.91
2022-09-17T18:12:05.119Z,84.75
2022-09-17T18:14:31.889Z,84.94
2022-09-17T18:16:58.725Z,85.41
2022-09-17T18:19:25.459Z,85.82
2022-09-17T18:21:54.664Z,86.46
2022-09-17T18:24:21.643Z,86.69
2022-09-17T18:26:48.487Z,87.05
2022-09-17T18:29:15.168Z,87.09
2022-09-17T18:31:42.132Z,87.79
2022-09-17T18:34:15.877Z,89.25
2022-09-17T18:36:50.826Z,90.48
2022-09-17T18:39:57.536Z,91.76
2022-09-17T18:42:06.783Z,94.25
2022-09-17T18:44:33.779Z,96.12
2022-09-17T18:47:00.588Z,96.47
2022-09-17T18:49:27.366Z,97.90
2022-09-17T18:51:53.996Z,99.06
2022-09-17T18:54:20.743Z,100.00
2022-09-17T18:56:47.421Z,100.00
2022-09-17T18:59:14.154Z,100.00
2022-09-17T19:01:41.151Z,100.00
2022-09-17T19:04:08.396Z,100.00
2022-09-17T19:06:35.996Z,100.00
2022-09-17T19:09:05.627Z,100.00
2022-09-17T19:11:35.027Z,100.00
2022-09-17T19:14:01.866Z,100.00
2022-09-17T19:16:28.623Z,100.00
2022-09-17T19:18:55.627Z,100.00
2022-09-17T19:21:22.498Z,100.00
2022-09-17T19:23:52.443Z,100.00
2022-09-17T19:26:26.141Z,100.00
2022-09-17T19:28:55.507Z,100.00
2022-09-17T19:31:23.079Z,100.00
2022-09-17T19:33:51.866Z,100.00
2022-09-17T19:36:20.610Z,100.00
2022-09-17T19:38:48.492Z,100.00
2022-09-17T19:41:19.050Z,100.00
2022-09-17T19:43:46.860Z,100.00
2022-09-17T19:46:18.186Z,100.00
2022-09-17T19:48:50.682Z,100.00
2022-09-17T19:51:19.097Z,100.00
2022-09-17T19:53:46.508Z,100.00
2022-09-17T19:56:17.407Z,100.00
2022-09-17T19:58:44.576Z,100.00
2022-09-17T20:01:11.826Z,100.00
2022-09-17T20:03:44.297Z,100.00
2022-09-17T20:06:15.623Z,100.00
2022-09-17T20:08:47.599Z,100.00
2022-09-17T20:11:17.114Z,100.00
2022-09-17T20:13:44.463Z,100.00
2022-09-17T20:16:15.929Z,100.00
2022-09-17T20:18:46.069Z,100.00
2022-09-17T20:21:21.033Z,100.00
2022-09-17T20:23:48.040Z,100.00
2022-09-17T20:26:16.517Z,100.00
2022-09-17T20:28:44.390Z,100.00
2022-09-17T20:31:23.908Z,100.00
2022-09-17T20:33:56.737Z,100.00
2022-09-17T20:36:31.003Z,100.00
2022-09-17T20:39:11.527Z,100.00
2022-09-17T20:41:42.290Z,100.00
2022-09-17T20:44:09.041Z,100.00
2022-09-17T20:46:35.769Z,100.00
2022-09-17T20:49:02.770Z,100.00
2022-09-17T20:51:32.630Z,100.00
2022-09-17T20:54:01.071Z,100.00
2022-09-17T20:56:33.091Z,100.00
2022-09-17T20:59:12.937Z,100.00
2022-09-17T21:01:44.454Z,100.00
2022-09-17T21:04:14.791Z,100.00
2022-09-17T21:06:43.379Z,100.00
2022-09-17T21:09:15.459Z,100.00
2022-09-17T21:11:45.662Z,100.00
2022-09-17T21:14:15.295Z,100.00
2022-09-17T21:16:42.841Z,100.00
2022-09-17T21:19:12.729Z,100.00
2022-09-17T21:21:39.454Z,100.00
2022-09-17T21:24:09.907Z,100.00
2022-09-17T21:26:36.893Z,100.00
2022-09-17T21:29:03.780Z,100.00
2022-09-17T21:31:34.180Z,100.00
2022-09-17T21:34:05.062Z,100.00
2022-09-17T21:36:37.168Z,100.00
2022-09-17T21:39:13.205Z,100.00
2022-09-17T21:41:42.765Z,100.00
2022-09-17T21:44:12.325Z,100.00
2022-09-17T21:46:41.160Z,100.00
2022-09-17T21:49:08.164Z,100.00
2022-09-17T21:51:41.672Z,100.00
2022-09-17T21:54:12.965Z,100.00
2022-09-17T21:56:39.712Z,100.00
2022-09-17T21:59:12.610Z,100.00
2022-09-17T22:01:47.271Z,100.00
2022-09-17T22:04:17.772Z,100.00
2022-09-17T22:06:46.163Z,100.00
2022-09-17T22:09:22.656Z,100.00
2022-09-17T22:11:50.384Z,100.00
2022-09-17T22:14:21.441Z,100.00
2022-09-17T22:16:55.228Z,100.00
2022-09-17T22:19:24.168Z,100.00
2022-09-17T22:21:54.556Z,100.00
2022-09-17T22:24:22.771Z,100.00
2022-09-17T22:26:57.385Z,100.00
2022-09-17T22:29:27.516Z,100.00
2022-09-17T22:31:54.459Z,100.00
2022-09-17T22:34:23.640Z,100.00
2022-09-17T22:36:50.552Z,100.00
2022-09-17T22:39:20.494Z,100.00
2022-09-17T22:41:47.354Z,100.00
2022-09-17T22:44:18.371Z,100.00
2022-09-17T22:46:48.964Z,100.00
2022-09-17T22:49:16.582Z,100.00
2022-09-17T22:51:44.900Z,100.00
2022-09-17T22:54:14.767Z,100.00
2022-09-17T22:56:42.742Z,100.00
2022-09-17T22:59:10.253Z,100.00
2022-09-17T23:01:39.231Z,100.00
2022-09-17T23:04:06.637Z,100.00
2022-09-17T23:06:38.537Z,100.00
2022-09-17T23:09:06.247Z,100.00
2022-09-17T23:11:38.613Z,100.00
2022-09-17T23:14:11.561Z,100.00
2022-09-17T23:16:45.851Z,100.00
2022-09-17T23:19:15.564Z,100.00
2022-09-17T23:21:43.381Z,100.00
2022-09-17T23:24:17.160Z,100.00
2022-09-17T23:26:44.035Z,100.00
2022-09-17T23:29:10.667Z,100.00
2022-09-17T23:31:37.507Z,100.00
2022-09-17T23:34:06.099Z,100.00
2022-09-17T23:36:36.938Z,100.00
2022-09-17T23:39:06.558Z,100.00
2022-09-17T23:41:40.661Z,100.00
2022-09-17T23:44:14.893Z,100.00
2022-09-17T23:46:45.058Z,100.00
2022-09-17T23:49:14.255Z,100.00
2022-09-17T23:51:41.440Z,100.00
2022-09-17T23:54:09.185Z,100.00
2022-09-17T23:56:36.852Z,100.00
2022-09-17T23:59:04.770Z,100.00
